Flight Track Log - Related Links

Times and Time Zones

All times are in EDT time to prevent confusion due to time zone crossing. See the EJA922 flight status page for this flight to view local times or setup timezone preferences in your user account.

Time Position Orientation Groundspeed Altitude Reporting Facility
EDT Latitude Longitude Course Direction KTS MPH feet Rate Location/Type
Mon 04:23:00 PM 40.9718 -74.7159 75° East  Level Estimated
Mon 04:24:00 PM 40.9847 -74.5848 83° East  Level Estimated
Mon 04:25:00 PM 40.9975 -74.4537 83° East  Level Estimated
Mon 04:26:00 PM 41.0100 -74.3225 83° East  Level Estimated
Mon 04:27:00 PM 41.0225 -74.1912 83° East  Level Estimated
Mon 04:28:00 PM 41.0347 -74.0599 83° East  Level Estimated
Mon 04:29:00 PM 41.0469 -73.9286 83° East  Level Estimated
Mon 04:30:00 PM 41.0589 -73.7972 83° East  Level Estimated
Mon 04:31:00 PM 41.0669 -73.7076 83° East  Level Estimated
Mon 04:32:00 PM 41.0669 -73.7076 37° Northeast  Level Estimated
Mon 04:33:00 PM 41.0669 -73.7076 37° Northeast  Level Estimated
Mon 04:34:00 PM 41.0669 -73.7076 37° Northeast  Level Estimated
Mon 04:35:00 PM 41.0669 -73.7076 37° Northeast  Level Estimated
Mon 04:36:00 PM 41.0669 -73.7076 37° Northeast  Level Estimated
Mon 04:36:21 PM 41.4500 -73.8833 37° Northeast 283 326 6,000  Level New York TRACON
Mon 04:37:00 PM 41.0669 -73.7076 37° Northeast  Level Estimated
Mon 04:37:15 PM 41.3833 -73.8333 151° Southeast 281 323 5,600  Level New York TRACON
Mon 04:38:00 PM 41.0669 -73.7076 37° Northeast  Level Estimated
Mon 04:38:15 PM 41.3167 -73.7833 151° Southeast 282 325 4,000  Level New York TRACON
Mon 04:39:00 PM 41.0669 -73.7076 37° Northeast  Level Estimated
Mon 04:39:15 PM 41.2667 -73.7000 129° Southeast 280 322 4,000  Level New York TRACON
Mon 04:40:00 PM 41.0669 -73.7076 37° Northeast  Level Estimated
Mon 04:40:15 PM 41.2333 -73.6333 124° Southeast 269 310 4,000  Level New York TRACON
Mon 04:41:00 PM 41.0669 -73.7076 37° Northeast  Level Estimated
Mon 04:41:21 PM 41.1667 -73.6000 159° South 257 296 2,500  Level New York TRACON
Mon 04:42:15 PM 41.1000 -73.5833 169° South 246 283 2,000 -263 Descending New York TRACON
Mon 04:43:15 PM 41.0333 -73.5833 180° South 235 270 2,000  Level New York TRACON
Mon 04:44:15 PM 40.9833 -73.6167 207° Southwest 223 257 2,000 -150 Level New York TRACON
Mon 04:45:15 PM 41.0000 -73.6667 294° West 204 235 1,700 -550 Descending New York TRACON
Mon 04:46:15 PM 41.0333 -73.6833 339° North 141 162 900 -800 Descending New York TRACON
Mon 04:48:00 PM 41.0667 -73.7000 246° West  Level FlightAware Approximate
Mon 04:55:00 PM 41.0669 -73.7076 246° West  Level Estimated
Mon 04:56:00 PM 41.0667 -73.7000 246° West  Level FlightAware Approximate
Mon 04:57:00 PM 41.0669 -73.7076 246° West  Level Estimated
Mon 04:58:00 PM 41.0667 -73.7000 246° West  Level FlightAware Approximate
Mon 04:59:00 PM 41.0669 -73.7076 246° West  Level Estimated
Mon 05:00:00 PM 41.0667 -73.7000 246° West  Level FlightAware Approximate
Mon 05:01:00 PM 41.0669 -73.7076 246° West  Level Estimated
Mon 05:02:00 PM 41.0667 -73.7000 246° West  Level FlightAware Approximate

Login

Don't have an account? Register now (free) for customized features, flight alerts, and more!